Terminal Aerodrome Forecast
Issued by NWS Albuquerque, NM

Home | Current Version | Previous Version | Text Only | Print | Product List | Glossary On
Versions: 1 2 3 4 5 6 7 8 9 10 11 12 13
265
FTUS45 KABQ 262100 AAA
TAFABQ
TAF AMD
KABQ 262100Z 2621/2718 34011KT P6SM VCSH BKN050
      TEMPO 2621/2624 VRB20G30KT -SHRASN
     FM270000 26010KT P6SM BKN060
     FM270500 VRB04KT P6SM SCT060
     FM271500 20008KT P6SM BKN060=

USA.gov is the U.S. government's official web portal to all federal, state and local government web resources and services.